NAPEX1 KBOS-KJFK
Flight info
| Callsign | NAPEX1 |
|---|---|
| Flight time | N/A |
| Altitude | 22000 |
| Route | SSOXS7 SSOXS DCT BUZRD DCT SEY PARCH3 |
| Aircraft | C25C/L-SG/L |
Departure
| Time | 2026-05-05 01:12 |
|---|---|
| Airport | Boston Logan International Airport (KBOS) |
Arrival
| Time | N/A |
|---|---|
| Airport | John F. Kennedy International Airport (KJFK) |
| Time | Latitude | Longitude | Altitude | Speed | Heading |
|---|---|---|---|---|---|
| 2026-05-05 00:57 | 42.36754 | -71.01394 | 17 ft | 0 kts | 295° |
| 2026-05-05 01:06 | 42.36750 | -71.01384 | -20 ft | 2 kts | 295° |
| 2026-05-05 01:06 | 42.36743 | -71.01367 | -20 ft | 2 kts | 334° |
| 2026-05-05 01:06 | 42.36738 | -71.01365 | 17 ft | 0 kts | 14° |
| 2026-05-05 01:08 | 42.36772 | -71.01340 | 18 ft | 11 kts | 33° |
| 2026-05-05 01:08 | 42.36861 | -71.01252 | 17 ft | 21 kts | 41° |
| 2026-05-05 01:08 | 42.36998 | -71.01103 | 17 ft | 29 kts | 29° |
| 2026-05-05 01:08 | 42.37206 | -71.00967 | 16 ft | 35 kts | 25° |
| 2026-05-05 01:09 | 42.37325 | -71.00894 | 15 ft | 0 kts | 22° |
| 2026-05-05 01:09 | 42.37331 | -71.00891 | 15 ft | 4 kts | 21° |
| 2026-05-05 01:10 | 42.37390 | -71.00862 | 15 ft | 14 kts | 20° |
| 2026-05-05 01:10 | 42.37508 | -71.00806 | 17 ft | 22 kts | 19° |
| 2026-05-05 01:10 | 42.37669 | -71.00725 | 20 ft | 21 kts | 20° |
| 2026-05-05 01:10 | 42.37806 | -71.00657 | 22 ft | 7 kts | 28° |
| 2026-05-05 01:11 | 42.37835 | -71.00566 | 21 ft | 17 kts | 107° |
| 2026-05-05 01:11 | 42.37745 | -71.00495 | 19 ft | 7 kts | 198° |
| 2026-05-05 01:11 | 42.37572 | -71.00576 | 19 ft | 80 kts | 199° |
| 2026-05-05 01:11 | 42.36716 | -71.01011 | 238 ft | 171 kts | 201° |
| 2026-05-05 01:12 | 42.35466 | -71.01627 | 992 ft | 208 kts | 202° |
| 2026-05-05 01:12 | 42.34057 | -71.02334 | 1848 ft | 222 kts | 204° |
| 2026-05-05 01:12 | 42.32557 | -71.03056 | 2511 ft | 236 kts | 204° |
| 2026-05-05 01:12 | 42.30983 | -71.03826 | 3175 ft | 245 kts | 204° |
| 2026-05-05 01:13 | 42.29377 | -71.04672 | 3840 ft | 250 kts | 207° |
| 2026-05-05 01:13 | 42.27728 | -71.05634 | 4027 ft | 258 kts | 208° |
| 2026-05-05 01:13 | 42.26247 | -71.06539 | 3921 ft | 216 kts | 210° |
| 2026-05-05 01:13 | 42.24968 | -71.07348 | 3925 ft | 187 kts | 211° |
| 2026-05-05 01:14 | 42.23983 | -71.08234 | 3970 ft | 164 kts | 240° |
| 2026-05-05 01:14 | 42.23965 | -71.09718 | 4008 ft | 171 kts | 292° |
| 2026-05-05 01:14 | 42.24946 | -71.10704 | 4034 ft | 192 kts | 338° |
| 2026-05-05 01:14 | 42.26283 | -71.10982 | 4052 ft | 196 kts | 344° |
| 2026-05-05 01:15 | 42.27645 | -71.11211 | 4052 ft | 198 kts | 346° |
| 2026-05-05 01:15 | 42.29021 | -71.11413 | 4052 ft | 199 kts | 346° |
| 2026-05-05 01:15 | 42.30407 | -71.11614 | 4036 ft | 200 kts | 346° |
| 2026-05-05 01:15 | 42.31791 | -71.11829 | 4040 ft | 201 kts | 346° |
| 2026-05-05 01:16 | 42.33185 | -71.12039 | 4043 ft | 201 kts | 346° |
| 2026-05-05 01:16 | 42.34562 | -71.12235 | 4043 ft | 202 kts | 346° |
| 2026-05-05 01:16 | 42.35961 | -71.12449 | 4042 ft | 203 kts | 347° |
| 2026-05-05 01:17 | 42.36443 | -71.12467 | 4039 ft | 207 kts | 358° |
| 2026-05-05 01:17 | 42.42920 | -71.09150 | 4040 ft | 215 kts | 16° |
| 2026-05-05 01:18 | 42.44311 | -71.08407 | 4052 ft | 215 kts | 16° |
| 2026-05-05 01:18 | 42.45701 | -71.07661 | 4040 ft | 214 kts | 17° |
| 2026-05-05 01:18 | 42.47081 | -71.06913 | 4036 ft | 213 kts | 15° |
| 2026-05-05 01:18 | 42.48457 | -71.06145 | 4025 ft | 214 kts | 16° |
| 2026-05-05 01:19 | 42.49845 | -71.05397 | 4018 ft | 215 kts | 16° |
| 2026-05-05 01:19 | 42.51228 | -71.04634 | 4017 ft | 214 kts | 15° |
| 2026-05-05 01:19 | 42.52612 | -71.03877 | 3911 ft | 213 kts | 16° |
| 2026-05-05 01:19 | 42.53985 | -71.03136 | 3689 ft | 212 kts | 16° |
| 2026-05-05 01:20 | 42.55338 | -71.02419 | 3471 ft | 211 kts | 15° |
| 2026-05-05 01:20 | 42.56642 | -71.01496 | 3216 ft | 218 kts | 42° |
| 2026-05-05 01:20 | 42.57189 | -70.99653 | 3063 ft | 210 kts | 94° |
| 2026-05-05 01:20 | 42.56753 | -70.97882 | 3022 ft | 194 kts | 125° |
| 2026-05-05 01:21 | 42.56105 | -70.96329 | 3054 ft | 183 kts | 134° |
| 2026-05-05 01:21 | 42.55238 | -70.95102 | 2941 ft | 181 kts | 147° |
| 2026-05-05 01:21 | 42.54241 | -70.94091 | 2859 ft | 166 kts | 156° |
| 2026-05-05 01:21 | 42.53379 | -70.93320 | 2853 ft | 139 kts | 158° |
| 2026-05-05 01:22 | 42.52455 | -70.92733 | 2660 ft | 151 kts | 174° |
| 2026-05-05 01:22 | 42.51449 | -70.92750 | 2630 ft | 147 kts | 200° |
| 2026-05-05 01:22 | 42.50489 | -70.93229 | 2535 ft | 150 kts | 208° |
| 2026-05-05 01:22 | 42.49563 | -70.93845 | 2513 ft | 149 kts | 212° |
| 2026-05-05 01:23 | 42.48613 | -70.94441 | 2478 ft | 152 kts | 207° |
| 2026-05-05 01:23 | 42.47627 | -70.94971 | 2402 ft | 154 kts | 207° |
| 2026-05-05 01:23 | 42.46647 | -70.95528 | 2288 ft | 149 kts | 208° |
| 2026-05-05 01:23 | 42.45718 | -70.96095 | 2106 ft | 144 kts | 207° |
| 2026-05-05 01:24 | 42.44770 | -70.96525 | 1894 ft | 144 kts | 202° |
| 2026-05-05 01:24 | 42.43825 | -70.96940 | 1738 ft | 141 kts | 205° |
| 2026-05-05 01:24 | 42.42951 | -70.97340 | 1711 ft | 113 kts | 205° |
| 2026-05-05 01:24 | 42.42222 | -70.97665 | 1383 ft | 109 kts | 208° |
| 2026-05-05 01:25 | 42.41520 | -70.98031 | 1108 ft | 110 kts | 206° |
| 2026-05-05 01:25 | 42.40792 | -70.98420 | 865 ft | 112 kts | 206° |
| 2026-05-05 01:25 | 42.40061 | -70.98792 | 650 ft | 115 kts | 200° |
| 2026-05-05 01:25 | 42.39319 | -70.99141 | 530 ft | 111 kts | 206° |
| 2026-05-05 01:26 | 42.38562 | -70.99497 | 335 ft | 117 kts | 203° |
| 2026-05-05 01:26 | 42.37805 | -70.99862 | 177 ft | 114 kts | 206° |
| 2026-05-05 01:26 | 42.37105 | -71.00206 | 29 ft | 97 kts | 205° |
| 2026-05-05 01:26 | 42.36560 | -71.00478 | 22 ft | 69 kts | 199° |
| 2026-05-05 01:27 | 42.36373 | -71.00614 | 22 ft | 10 kts | 305° |
| 2026-05-05 01:27 | 42.36409 | -71.00692 | 23 ft | 10 kts | 295° |
| 2026-05-05 01:27 | 42.36435 | -71.00771 | 23 ft | 0 kts | 292° |